<?xml version="1.0" encoding="UTF-8" standalone="no" ?>
<gpx xmlns="http://www.topografix.com/GPX/1/1" xmlns:xsi="http://www.w3.org/2001/XMLSchema-instance" xsi:schemaLocation="http://www.topografix.com/GPX/1/1 http://www.topografix.com/GPX/1/1/gpx.xsd" version="1.1" creator="VisuGPX - https://www.visugpx.com">
  <metadata>
    <name>Pic du Carlit</name>
    <desc><![CDATA[Lacs d'altitude de Bouillouses]]></desc>
  </metadata>
  <trk>
    <name><![CDATA[8888436-Pic du Carlit]]></name>
    <trkseg>
      <trkpt lat="42.56018" lon="2.00233">
        <ele>2010</ele>
        <time>2018-07-14T15:46:02Z</time>
      </trkpt>
      <trkpt lat="42.55967" lon="1.99851">
        <ele>2019</ele>
        <time>2018-07-14T15:47:02Z</time>
      </trkpt>
      <trkpt lat="42.55992" lon="1.99723">
        <ele>2031</ele>
        <time>2018-07-14T15:48:02Z</time>
      </trkpt>
      <trkpt lat="42.56" lon="1.99608">
        <ele>2039</ele>
        <time>2018-07-14T15:49:02Z</time>
      </trkpt>
      <trkpt lat="42.56038" lon="1.99468">
        <ele>2065</ele>
        <time>2018-07-14T15:50:02Z</time>
      </trkpt>
      <trkpt lat="42.56005" lon="1.99383">
        <ele>2067</ele>
        <time>2018-07-14T15:51:02Z</time>
      </trkpt>
      <trkpt lat="42.56" lon="1.99219">
        <ele>2075</ele>
        <time>2018-07-14T15:52:02Z</time>
      </trkpt>
      <trkpt lat="42.56036" lon="1.99071">
        <ele>2093</ele>
        <time>2018-07-14T15:53:02Z</time>
      </trkpt>
      <trkpt lat="42.56101" lon="1.99001">
        <ele>2095</ele>
        <time>2018-07-14T15:54:02Z</time>
      </trkpt>
      <trkpt lat="42.56195" lon="1.9881">
        <ele>2114</ele>
        <time>2018-07-14T15:55:02Z</time>
      </trkpt>
      <trkpt lat="42.56436" lon="1.98549">
        <ele>2143</ele>
        <time>2018-07-14T15:56:02Z</time>
      </trkpt>
      <trkpt lat="42.56584" lon="1.98276">
        <ele>2153</ele>
        <time>2018-07-14T15:57:02Z</time>
      </trkpt>
      <trkpt lat="42.56749" lon="1.98209">
        <ele>2179</ele>
        <time>2018-07-14T15:58:02Z</time>
      </trkpt>
      <trkpt lat="42.56977" lon="1.97936">
        <ele>2184</ele>
        <time>2018-07-14T15:59:02Z</time>
      </trkpt>
      <trkpt lat="42.57147" lon="1.97833">
        <ele>2213</ele>
        <time>2018-07-14T16:00:02Z</time>
      </trkpt>
      <trkpt lat="42.57286" lon="1.97599">
        <ele>2238</ele>
        <time>2018-07-14T16:01:02Z</time>
      </trkpt>
      <trkpt lat="42.57373" lon="1.97447">
        <ele>2243</ele>
        <time>2018-07-14T16:02:02Z</time>
      </trkpt>
      <trkpt lat="42.57391" lon="1.97302">
        <ele>2241</ele>
        <time>2018-07-14T16:03:02Z</time>
      </trkpt>
      <trkpt lat="42.57446" lon="1.97214">
        <ele>2242</ele>
        <time>2018-07-14T16:04:02Z</time>
      </trkpt>
      <trkpt lat="42.57621" lon="1.96707">
        <ele>2307</ele>
        <time>2018-07-14T16:05:02Z</time>
      </trkpt>
      <trkpt lat="42.57601" lon="1.96604">
        <ele>2314</ele>
        <time>2018-07-14T16:06:02Z</time>
      </trkpt>
      <trkpt lat="42.57625" lon="1.96519">
        <ele>2314</ele>
        <time>2018-07-14T16:07:02Z</time>
      </trkpt>
      <trkpt lat="42.57668" lon="1.96428">
        <ele>2315</ele>
        <time>2018-07-14T16:08:02Z</time>
      </trkpt>
      <trkpt lat="42.57596" lon="1.96197">
        <ele>2320</ele>
        <time>2018-07-14T16:09:02Z</time>
      </trkpt>
      <trkpt lat="42.57469" lon="1.95696">
        <ele>2341</ele>
        <time>2018-07-14T16:10:02Z</time>
      </trkpt>
      <trkpt lat="42.57265" lon="1.95551">
        <ele>2343</ele>
        <time>2018-07-14T16:11:02Z</time>
      </trkpt>
      <trkpt lat="42.57201" lon="1.95423">
        <ele>2357</ele>
        <time>2018-07-14T16:12:02Z</time>
      </trkpt>
      <trkpt lat="42.5716" lon="1.95253">
        <ele>2363</ele>
        <time>2018-07-14T16:13:02Z</time>
      </trkpt>
      <trkpt lat="42.57158" lon="1.95109">
        <ele>2370</ele>
        <time>2018-07-14T16:14:02Z</time>
      </trkpt>
      <trkpt lat="42.57185" lon="1.94998">
        <ele>2384</ele>
        <time>2018-07-14T16:15:02Z</time>
      </trkpt>
      <trkpt lat="42.57165" lon="1.94913">
        <ele>2398</ele>
        <time>2018-07-14T16:16:02Z</time>
      </trkpt>
      <trkpt lat="42.57122" lon="1.94871">
        <ele>2413</ele>
        <time>2018-07-14T16:17:02Z</time>
      </trkpt>
      <trkpt lat="42.57127" lon="1.94762">
        <ele>2421</ele>
        <time>2018-07-14T16:18:02Z</time>
      </trkpt>
      <trkpt lat="42.57093" lon="1.9471">
        <ele>2429</ele>
        <time>2018-07-14T16:19:02Z</time>
      </trkpt>
      <trkpt lat="42.57091" lon="1.94583">
        <ele>2436</ele>
        <time>2018-07-14T16:20:02Z</time>
      </trkpt>
      <trkpt lat="42.57006" lon="1.94391">
        <ele>2498</ele>
        <time>2018-07-14T16:21:02Z</time>
      </trkpt>
      <trkpt lat="42.57049" lon="1.94155">
        <ele>2574</ele>
        <time>2018-07-14T16:22:02Z</time>
      </trkpt>
      <trkpt lat="42.57046" lon="1.94012">
        <ele>2616</ele>
        <time>2018-07-14T16:23:02Z</time>
      </trkpt>
      <trkpt lat="42.5697" lon="1.93763">
        <ele>2666</ele>
        <time>2018-07-14T16:24:02Z</time>
      </trkpt>
      <trkpt lat="42.56959" lon="1.93569">
        <ele>2730</ele>
        <time>2018-07-14T16:25:02Z</time>
      </trkpt>
      <trkpt lat="42.56962" lon="1.93426">
        <ele>2782</ele>
        <time>2018-07-14T16:26:02Z</time>
      </trkpt>
      <trkpt lat="42.57015" lon="1.9332">
        <ele>2840</ele>
        <time>2018-07-14T16:27:02Z</time>
      </trkpt>
      <trkpt lat="42.57042" lon="1.93238">
        <ele>2873</ele>
        <time>2018-07-14T16:28:02Z</time>
      </trkpt>
      <trkpt lat="42.57044" lon="1.93153">
        <ele>2869</ele>
        <time>2018-07-14T16:29:02Z</time>
      </trkpt>
      <trkpt lat="42.57056" lon="1.93243">
        <ele>2872</ele>
        <time>2018-07-14T16:30:02Z</time>
      </trkpt>
      <trkpt lat="42.57011" lon="1.93346">
        <ele>2827</ele>
        <time>2018-07-14T16:31:02Z</time>
      </trkpt>
      <trkpt lat="42.56973" lon="1.93441">
        <ele>2778</ele>
        <time>2018-07-14T16:32:02Z</time>
      </trkpt>
      <trkpt lat="42.56974" lon="1.93575">
        <ele>2731</ele>
        <time>2018-07-14T16:33:02Z</time>
      </trkpt>
      <trkpt lat="42.56984" lon="1.93759">
        <ele>2669</ele>
        <time>2018-07-14T16:34:02Z</time>
      </trkpt>
      <trkpt lat="42.57035" lon="1.94013">
        <ele>2616</ele>
        <time>2018-07-14T16:35:02Z</time>
      </trkpt>
      <trkpt lat="42.57034" lon="1.94158">
        <ele>2578</ele>
        <time>2018-07-14T16:36:02Z</time>
      </trkpt>
      <trkpt lat="42.56994" lon="1.94388">
        <ele>2506</ele>
        <time>2018-07-14T16:37:02Z</time>
      </trkpt>
      <trkpt lat="42.57077" lon="1.94591">
        <ele>2441</ele>
        <time>2018-07-14T16:38:02Z</time>
      </trkpt>
      <trkpt lat="42.57085" lon="1.94713">
        <ele>2430</ele>
        <time>2018-07-14T16:39:02Z</time>
      </trkpt>
      <trkpt lat="42.57135" lon="1.94758">
        <ele>2420</ele>
        <time>2018-07-14T16:40:02Z</time>
      </trkpt>
      <trkpt lat="42.57136" lon="1.94863">
        <ele>2411</ele>
        <time>2018-07-14T16:41:02Z</time>
      </trkpt>
      <trkpt lat="42.57172" lon="1.94905">
        <ele>2397</ele>
        <time>2018-07-14T16:42:02Z</time>
      </trkpt>
      <trkpt lat="42.57192" lon="1.95006">
        <ele>2381</ele>
        <time>2018-07-14T16:43:02Z</time>
      </trkpt>
      <trkpt lat="42.57165" lon="1.95132">
        <ele>2367</ele>
        <time>2018-07-14T16:44:02Z</time>
      </trkpt>
      <trkpt lat="42.57145" lon="1.95264">
        <ele>2365</ele>
        <time>2018-07-14T16:45:02Z</time>
      </trkpt>
      <trkpt lat="42.57159" lon="1.95435">
        <ele>2368</ele>
        <time>2018-07-14T16:46:02Z</time>
      </trkpt>
      <trkpt lat="42.57148" lon="1.95574">
        <ele>2363</ele>
        <time>2018-07-14T16:47:02Z</time>
      </trkpt>
      <trkpt lat="42.57149" lon="1.95659">
        <ele>2360</ele>
        <time>2018-07-14T16:48:02Z</time>
      </trkpt>
      <trkpt lat="42.57178" lon="1.95726">
        <ele>2355</ele>
        <time>2018-07-14T16:49:02Z</time>
      </trkpt>
      <trkpt lat="42.57249" lon="1.95801">
        <ele>2351</ele>
        <time>2018-07-14T16:50:02Z</time>
      </trkpt>
      <trkpt lat="42.57244" lon="1.95931">
        <ele>2337</ele>
        <time>2018-07-14T16:51:02Z</time>
      </trkpt>
      <trkpt lat="42.5724" lon="1.95989">
        <ele>2324</ele>
        <time>2018-07-14T16:52:02Z</time>
      </trkpt>
      <trkpt lat="42.57214" lon="1.9605">
        <ele>2311</ele>
        <time>2018-07-14T16:53:02Z</time>
      </trkpt>
      <trkpt lat="42.5722" lon="1.96121">
        <ele>2303</ele>
        <time>2018-07-14T16:54:02Z</time>
      </trkpt>
      <trkpt lat="42.57198" lon="1.96178">
        <ele>2292</ele>
        <time>2018-07-14T16:55:02Z</time>
      </trkpt>
      <trkpt lat="42.57233" lon="1.96317">
        <ele>2283</ele>
        <time>2018-07-14T16:56:02Z</time>
      </trkpt>
      <trkpt lat="42.57254" lon="1.96462">
        <ele>2267</ele>
        <time>2018-07-14T16:57:02Z</time>
      </trkpt>
      <trkpt lat="42.57254" lon="1.96519">
        <ele>2258</ele>
        <time>2018-07-14T16:58:02Z</time>
      </trkpt>
      <trkpt lat="42.57271" lon="1.96566">
        <ele>2253</ele>
        <time>2018-07-14T16:59:02Z</time>
      </trkpt>
      <trkpt lat="42.57271" lon="1.96633">
        <ele>2243</ele>
        <time>2018-07-14T17:00:02Z</time>
      </trkpt>
      <trkpt lat="42.57318" lon="1.96714">
        <ele>2236</ele>
        <time>2018-07-14T17:01:02Z</time>
      </trkpt>
      <trkpt lat="42.57299" lon="1.96882">
        <ele>2230</ele>
        <time>2018-07-14T17:02:02Z</time>
      </trkpt>
      <trkpt lat="42.57127" lon="1.97054">
        <ele>2238</ele>
        <time>2018-07-14T17:03:02Z</time>
      </trkpt>
      <trkpt lat="42.56977" lon="1.97109">
        <ele>2231</ele>
        <time>2018-07-14T17:04:02Z</time>
      </trkpt>
      <trkpt lat="42.56729" lon="1.97312">
        <ele>2194</ele>
        <time>2018-07-14T17:05:02Z</time>
      </trkpt>
      <trkpt lat="42.56655" lon="1.97358">
        <ele>2190</ele>
        <time>2018-07-14T17:06:02Z</time>
      </trkpt>
      <trkpt lat="42.56513" lon="1.97434">
        <ele>2182</ele>
        <time>2018-07-14T17:07:02Z</time>
      </trkpt>
      <trkpt lat="42.5653" lon="1.97487">
        <ele>2174</ele>
        <time>2018-07-14T17:08:02Z</time>
      </trkpt>
      <trkpt lat="42.56511" lon="1.9755">
        <ele>2172</ele>
        <time>2018-07-14T17:09:02Z</time>
      </trkpt>
      <trkpt lat="42.56454" lon="1.97681">
        <ele>2169</ele>
        <time>2018-07-14T17:10:02Z</time>
      </trkpt>
      <trkpt lat="42.56464" lon="1.97938">
        <ele>2173</ele>
        <time>2018-07-14T17:11:02Z</time>
      </trkpt>
      <trkpt lat="42.56549" lon="1.98192">
        <ele>2168</ele>
        <time>2018-07-14T17:12:02Z</time>
      </trkpt>
      <trkpt lat="42.56452" lon="1.98304">
        <ele>2159</ele>
        <time>2018-07-14T17:13:02Z</time>
      </trkpt>
      <trkpt lat="42.5643" lon="1.98533">
        <ele>2144</ele>
        <time>2018-07-14T17:14:02Z</time>
      </trkpt>
      <trkpt lat="42.5618" lon="1.9882">
        <ele>2112</ele>
        <time>2018-07-14T17:15:02Z</time>
      </trkpt>
      <trkpt lat="42.56089" lon="1.99015">
        <ele>2094</ele>
        <time>2018-07-14T17:16:02Z</time>
      </trkpt>
      <trkpt lat="42.56026" lon="1.99091">
        <ele>2089</ele>
        <time>2018-07-14T17:17:02Z</time>
      </trkpt>
      <trkpt lat="42.56002" lon="1.99257">
        <ele>2075</ele>
        <time>2018-07-14T17:18:02Z</time>
      </trkpt>
      <trkpt lat="42.56006" lon="1.99388">
        <ele>2067</ele>
        <time>2018-07-14T17:19:02Z</time>
      </trkpt>
      <trkpt lat="42.56042" lon="1.99475">
        <ele>2065</ele>
        <time>2018-07-14T17:20:02Z</time>
      </trkpt>
      <trkpt lat="42.56" lon="1.99628">
        <ele>2038</ele>
        <time>2018-07-14T17:21:02Z</time>
      </trkpt>
      <trkpt lat="42.55988" lon="1.99746">
        <ele>2028</ele>
        <time>2018-07-14T17:22:02Z</time>
      </trkpt>
      <trkpt lat="42.55972" lon="1.99872">
        <ele>2018</ele>
        <time>2018-07-14T17:23:02Z</time>
      </trkpt>
      <trkpt lat="42.56017" lon="2.00253">
        <ele>2011</ele>
        <time>2018-07-14T17:24:02Z</time>
      </trkpt>
    </trkseg>
  </trk>
</gpx>